sensor_id;sensor_type;location;lat;lon;timestamp;P1;durP1;ratioP1;P2;durP2;ratioP2
18677;SDS011;9469;51.114;13.914;2022-12-07T00:04:16;26.07;;;15.00;;
18677;SDS011;9469;51.114;13.914;2022-12-07T00:09:22;24.27;;;13.60;;
18677;SDS011;9469;51.114;13.914;2022-12-07T00:14:29;22.93;;;11.47;;
18677;SDS011;9469;51.114;13.914;2022-12-07T00:19:34;25.93;;;13.00;;
18677;SDS011;9469;51.114;13.914;2022-12-07T00:24:39;21.53;;;13.10;;
18677;SDS011;9469;51.114;13.914;2022-12-07T00:29:47;23.43;;;12.27;;
18677;SDS011;9469;51.114;13.914;2022-12-07T00:34:52;18.40;;;12.07;;
18677;SDS011;9469;51.114;13.914;2022-12-07T00:39:57;21.70;;;12.27;;
18677;SDS011;9469;51.114;13.914;2022-12-07T00:45:06;18.60;;;11.27;;
18677;SDS011;9469;51.114;13.914;2022-12-07T00:50:12;23.10;;;13.17;;
18677;SDS011;9469;51.114;13.914;2022-12-07T00:55:17;18.57;;;11.70;;
18677;SDS011;9469;51.114;13.914;2022-12-07T01:00:24;17.73;;;12.13;;
18677;SDS011;9469;51.114;13.914;2022-12-07T01:05:31;17.53;;;11.43;;
18677;SDS011;9469;51.114;13.914;2022-12-07T01:10:36;20.60;;;12.47;;
18677;SDS011;9469;51.114;13.914;2022-12-07T01:15:44;18.83;;;11.53;;
18677;SDS011;9469;51.114;13.914;2022-12-07T01:20:56;17.80;;;11.07;;
18677;SDS011;9469;51.114;13.914;2022-12-07T01:26:02;18.77;;;11.50;;
18677;SDS011;9469;51.114;13.914;2022-12-07T01:31:12;20.20;;;12.87;;
18677;SDS011;9469;51.114;13.914;2022-12-07T01:36:19;19.53;;;12.10;;
18677;SDS011;9469;51.114;13.914;2022-12-07T01:41:30;21.60;;;12.67;;
18677;SDS011;9469;51.114;13.914;2022-12-07T01:46:40;20.60;;;13.13;;
18677;SDS011;9469;51.114;13.914;2022-12-07T01:51:48;19.73;;;13.03;;
18677;SDS011;9469;51.114;13.914;2022-12-07T01:56:56;22.13;;;12.23;;
18677;SDS011;9469;51.114;13.914;2022-12-07T02:02:08;20.43;;;12.97;;
18677;SDS011;9469;51.114;13.914;2022-12-07T02:07:18;22.57;;;13.40;;
18677;SDS011;9469;51.114;13.914;2022-12-07T02:12:24;23.67;;;13.10;;
18677;SDS011;9469;51.114;13.914;2022-12-07T02:17:36;18.93;;;12.73;;
18677;SDS011;9469;51.114;13.914;2022-12-07T02:28:27;19.00;;;11.97;;
18677;SDS011;9469;51.114;13.914;2022-12-07T02:33:41;21.33;;;11.77;;
18677;SDS011;9469;51.114;13.914;2022-12-07T02:38:53;17.47;;;11.90;;
18677;SDS011;9469;51.114;13.914;2022-12-07T02:44:03;18.27;;;11.20;;
18677;SDS011;9469;51.114;13.914;2022-12-07T02:49:17;15.97;;;11.07;;
18677;SDS011;9469;51.114;13.914;2022-12-07T02:54:23;14.50;;;10.20;;
18677;SDS011;9469;51.114;13.914;2022-12-07T02:59:30;15.17;;;10.43;;
18677;SDS011;9469;51.114;13.914;2022-12-07T03:04:52;15.40;;;10.23;;
18677;SDS011;9469;51.114;13.914;2022-12-07T03:10:07;15.70;;;10.17;;
18677;SDS011;9469;51.114;13.914;2022-12-07T03:15:20;13.77;;;9.90;;
18677;SDS011;9469;51.114;13.914;2022-12-07T03:20:33;17.97;;;10.90;;
18677;SDS011;9469;51.114;13.914;2022-12-07T03:25:42;16.87;;;10.27;;
18677;SDS011;9469;51.114;13.914;2022-12-07T03:30:58;17.53;;;10.57;;
18677;SDS011;9469;51.114;13.914;2022-12-07T03:36:11;18.97;;;12.33;;
18677;SDS011;9469;51.114;13.914;2022-12-07T03:47:02;17.57;;;11.07;;
18677;SDS011;9469;51.114;13.914;2022-12-07T03:52:40;15.80;;;10.53;;
18677;SDS011;9469;51.114;13.914;2022-12-07T03:57:48;16.27;;;11.07;;
18677;SDS011;9469;51.114;13.914;2022-12-07T04:02:56;15.80;;;11.23;;
18677;SDS011;9469;51.114;13.914;2022-12-07T04:08:07;16.07;;;11.03;;
18677;SDS011;9469;51.114;13.914;2022-12-07T04:13:14;18.87;;;11.73;;
18677;SDS011;9469;51.114;13.914;2022-12-07T04:18:19;14.43;;;10.13;;
18677;SDS011;9469;51.114;13.914;2022-12-07T04:23:27;17.73;;;11.07;;
18677;SDS011;9469;51.114;13.914;2022-12-07T04:28:32;16.13;;;11.10;;
18677;SDS011;9469;51.114;13.914;2022-12-07T04:33:37;15.83;;;10.87;;
18677;SDS011;9469;51.114;13.914;2022-12-07T04:38:45;17.47;;;12.00;;
18677;SDS011;9469;51.114;13.914;2022-12-07T04:43:51;17.13;;;11.97;;
18677;SDS011;9469;51.114;13.914;2022-12-07T04:48:57;18.27;;;12.03;;
18677;SDS011;9469;51.114;13.914;2022-12-07T04:54:05;22.20;;;13.37;;
18677;SDS011;9469;51.114;13.914;2022-12-07T04:59:10;18.57;;;12.37;;
18677;SDS011;9469;51.114;13.914;2022-12-07T05:04:16;16.53;;;11.20;;
18677;SDS011;9469;51.114;13.914;2022-12-07T05:09:24;16.97;;;10.93;;
18677;SDS011;9469;51.114;13.914;2022-12-07T05:14:29;19.40;;;12.27;;
18677;SDS011;9469;51.114;13.914;2022-12-07T05:19:34;18.73;;;11.77;;
18677;SDS011;9469;51.114;13.914;2022-12-07T05:24:42;16.80;;;10.90;;
18677;SDS011;9469;51.114;13.914;2022-12-07T05:29:50;16.80;;;10.90;;
18677;SDS011;9469;51.114;13.914;2022-12-07T05:34:55;16.20;;;10.20;;
18677;SDS011;9469;51.114;13.914;2022-12-07T05:40:05;18.13;;;10.40;;
18677;SDS011;9469;51.114;13.914;2022-12-07T05:45:10;13.77;;;9.50;;
18677;SDS011;9469;51.114;13.914;2022-12-07T05:50:15;14.30;;;9.00;;
18677;SDS011;9469;51.114;13.914;2022-12-07T05:55:36;14.23;;;8.67;;
18677;SDS011;9469;51.114;13.914;2022-12-07T06:00:41;14.67;;;9.27;;
18677;SDS011;9469;51.114;13.914;2022-12-07T06:05:52;13.33;;;9.17;;
18677;SDS011;9469;51.114;13.914;2022-12-07T06:10:59;14.27;;;9.07;;
18677;SDS011;9469;51.114;13.914;2022-12-07T06:16:17;13.30;;;7.80;;
18677;SDS011;9469;51.114;13.914;2022-12-07T06:21:22;13.93;;;8.13;;
18677;SDS011;9469;51.114;13.914;2022-12-07T06:26:30;11.50;;;8.63;;
18677;SDS011;9469;51.114;13.914;2022-12-07T06:31:35;11.97;;;8.43;;
18677;SDS011;9469;51.114;13.914;2022-12-07T06:36:41;9.77;;;7.10;;
18677;SDS011;9469;51.114;13.914;2022-12-07T06:41:49;12.57;;;7.27;;
18677;SDS011;9469;51.114;13.914;2022-12-07T06:46:56;10.73;;;7.83;;
18677;SDS011;9469;51.114;13.914;2022-12-07T06:52:22;11.43;;;7.70;;
18677;SDS011;9469;51.114;13.914;2022-12-07T06:57:31;9.67;;;7.03;;
18677;SDS011;9469;51.114;13.914;2022-12-07T07:02:36;11.57;;;6.63;;
18677;SDS011;9469;51.114;13.914;2022-12-07T07:07:41;11.37;;;7.53;;
18677;SDS011;9469;51.114;13.914;2022-12-07T07:13:11;10.13;;;6.30;;
18677;SDS011;9469;51.114;13.914;2022-12-07T07:18:16;13.27;;;7.00;;
18677;SDS011;9469;51.114;13.914;2022-12-07T07:23:21;18.73;;;10.10;;
18677;SDS011;9469;51.114;13.914;2022-12-07T07:28:31;13.00;;;9.63;;
18677;SDS011;9469;51.114;13.914;2022-12-07T07:33:36;15.93;;;10.13;;
18677;SDS011;9469;51.114;13.914;2022-12-07T07:38:41;9.97;;;7.40;;
18677;SDS011;9469;51.114;13.914;2022-12-07T07:43:49;19.47;;;11.77;;
18677;SDS011;9469;51.114;13.914;2022-12-07T07:48:54;14.23;;;9.03;;
18677;SDS011;9469;51.114;13.914;2022-12-07T07:53:59;13.30;;;7.97;;
18677;SDS011;9469;51.114;13.914;2022-12-07T07:59:09;10.90;;;7.17;;
18677;SDS011;9469;51.114;13.914;2022-12-07T08:04:14;12.50;;;7.90;;
18677;SDS011;9469;51.114;13.914;2022-12-07T08:09:19;16.63;;;10.10;;
18677;SDS011;9469;51.114;13.914;2022-12-07T08:14:27;13.20;;;8.43;;
18677;SDS011;9469;51.114;13.914;2022-12-07T08:19:33;11.23;;;8.43;;
18677;SDS011;9469;51.114;13.914;2022-12-07T08:24:38;11.60;;;9.00;;
18677;SDS011;9469;51.114;13.914;2022-12-07T08:29:46;13.00;;;9.70;;
18677;SDS011;9469;51.114;13.914;2022-12-07T08:34:51;13.17;;;9.03;;
18677;SDS011;9469;51.114;13.914;2022-12-07T08:40:01;20.77;;;11.20;;
18677;SDS011;9469;51.114;13.914;2022-12-07T08:45:10;18.67;;;10.90;;
18677;SDS011;9469;51.114;13.914;2022-12-07T08:50:21;22.20;;;13.33;;
18677;SDS011;9469;51.114;13.914;2022-12-07T08:55:31;14.37;;;10.57;;
18677;SDS011;9469;51.114;13.914;2022-12-07T09:00:46;19.07;;;11.33;;
18677;SDS011;9469;51.114;13.914;2022-12-07T09:05:52;14.63;;;10.47;;
18677;SDS011;9469;51.114;13.914;2022-12-07T09:11:01;15.33;;;10.70;;
18677;SDS011;9469;51.114;13.914;2022-12-07T09:16:09;15.97;;;10.47;;
18677;SDS011;9469;51.114;13.914;2022-12-07T09:21:14;12.77;;;9.30;;
18677;SDS011;9469;51.114;13.914;2022-12-07T09:26:19;18.50;;;11.07;;
18677;SDS011;9469;51.114;13.914;2022-12-07T09:31:28;22.30;;;12.77;;
18677;SDS011;9469;51.114;13.914;2022-12-07T09:36:35;18.03;;;10.47;;
18677;SDS011;9469;51.114;13.914;2022-12-07T09:41:41;20.23;;;11.87;;
18677;SDS011;9469;51.114;13.914;2022-12-07T09:46:52;16.30;;;9.83;;
18677;SDS011;9469;51.114;13.914;2022-12-07T09:52:03;15.47;;;9.53;;
18677;SDS011;9469;51.114;13.914;2022-12-07T09:57:25;9.63;;;7.53;;
18677;SDS011;9469;51.114;13.914;2022-12-07T10:02:37;12.37;;;7.50;;
18677;SDS011;9469;51.114;13.914;2022-12-07T10:07:44;10.47;;;7.23;;
18677;SDS011;9469;51.114;13.914;2022-12-07T10:12:53;9.67;;;7.53;;
18677;SDS011;9469;51.114;13.914;2022-12-07T10:18:03;12.67;;;8.60;;
18677;SDS011;9469;51.114;13.914;2022-12-07T10:23:18;13.57;;;7.47;;
18677;SDS011;9469;51.114;13.914;2022-12-07T10:28:27;14.63;;;7.03;;
18677;SDS011;9469;51.114;13.914;2022-12-07T10:33:51;11.73;;;7.53;;
18677;SDS011;9469;51.114;13.914;2022-12-07T10:39:10;11.17;;;7.93;;
18677;SDS011;9469;51.114;13.914;2022-12-07T10:44:21;9.37;;;5.80;;
18677;SDS011;9469;51.114;13.914;2022-12-07T10:49:40;12.07;;;5.97;;
18677;SDS011;9469;51.114;13.914;2022-12-07T10:55:00;11.40;;;6.43;;
18677;SDS011;9469;51.114;13.914;2022-12-07T11:00:18;11.60;;;7.03;;
18677;SDS011;9469;51.114;13.914;2022-12-07T11:05:30;12.90;;;7.50;;
18677;SDS011;9469;51.114;13.914;2022-12-07T11:10:52;10.00;;;6.13;;
18677;SDS011;9469;51.114;13.914;2022-12-07T11:16:12;8.37;;;6.17;;
18677;SDS011;9469;51.114;13.914;2022-12-07T11:21:30;11.33;;;6.30;;
18677;SDS011;9469;51.114;13.914;2022-12-07T11:26:44;10.60;;;6.97;;
18677;SDS011;9469;51.114;13.914;2022-12-07T11:32:04;11.10;;;6.47;;
18677;SDS011;9469;51.114;13.914;2022-12-07T11:37:20;13.23;;;7.60;;
18677;SDS011;9469;51.114;13.914;2022-12-07T11:42:41;14.60;;;7.70;;
18677;SDS011;9469;51.114;13.914;2022-12-07T11:47:51;11.23;;;7.53;;
18677;SDS011;9469;51.114;13.914;2022-12-07T11:53:10;11.77;;;6.67;;
18677;SDS011;9469;51.114;13.914;2022-12-07T11:58:23;13.97;;;6.57;;
18677;SDS011;9469;51.114;13.914;2022-12-07T12:03:49;7.80;;;5.37;;
18677;SDS011;9469;51.114;13.914;2022-12-07T12:09:00;9.73;;;5.47;;
18677;SDS011;9469;51.114;13.914;2022-12-07T12:14:37;8.17;;;6.47;;
18677;SDS011;9469;51.114;13.914;2022-12-07T12:19:59;10.73;;;6.43;;
18677;SDS011;9469;51.114;13.914;2022-12-07T12:25:15;16.37;;;7.80;;
18677;SDS011;9469;51.114;13.914;2022-12-07T12:42:09;11.13;;;6.47;;
18677;SDS011;9469;51.114;13.914;2022-12-07T12:58:41;10.97;;;6.87;;
18677;SDS011;9469;51.114;13.914;2022-12-07T13:03:52;10.27;;;6.70;;
18677;SDS011;9469;51.114;13.914;2022-12-07T13:09:17;12.17;;;6.90;;
18677;SDS011;9469;51.114;13.914;2022-12-07T13:31:46;11.70;;;6.77;;
18677;SDS011;9469;51.114;13.914;2022-12-07T13:36:58;7.37;;;5.23;;
18677;SDS011;9469;51.114;13.914;2022-12-07T13:42:08;4.37;;;3.97;;
18677;SDS011;9469;51.114;13.914;2022-12-07T13:47:27;4.33;;;3.30;;
18677;SDS011;9469;51.114;13.914;2022-12-07T13:52:45;5.53;;;3.47;;
18677;SDS011;9469;51.114;13.914;2022-12-07T13:57:55;2.93;;;2.73;;
18677;SDS011;9469;51.114;13.914;2022-12-07T14:03:21;4.03;;;3.67;;
18677;SDS011;9469;51.114;13.914;2022-12-07T14:08:36;3.87;;;3.40;;
18677;SDS011;9469;51.114;13.914;2022-12-07T14:13:44;4.93;;;3.83;;
18677;SDS011;9469;51.114;13.914;2022-12-07T14:24:57;7.07;;;4.93;;
18677;SDS011;9469;51.114;13.914;2022-12-07T14:30:04;7.83;;;5.20;;
18677;SDS011;9469;51.114;13.914;2022-12-07T14:35:11;6.60;;;5.27;;
18677;SDS011;9469;51.114;13.914;2022-12-07T14:40:21;6.70;;;5.37;;
18677;SDS011;9469;51.114;13.914;2022-12-07T14:45:28;7.83;;;4.83;;
18677;SDS011;9469;51.114;13.914;2022-12-07T14:50:36;10.10;;;5.30;;
18677;SDS011;9469;51.114;13.914;2022-12-07T14:56:08;8.23;;;6.00;;
18677;SDS011;9469;51.114;13.914;2022-12-07T15:01:16;8.63;;;5.63;;
18677;SDS011;9469;51.114;13.914;2022-12-07T15:06:21;9.20;;;6.17;;
18677;SDS011;9469;51.114;13.914;2022-12-07T15:11:29;7.47;;;6.10;;
18677;SDS011;9469;51.114;13.914;2022-12-07T15:16:45;8.03;;;5.63;;
18677;SDS011;9469;51.114;13.914;2022-12-07T15:22:10;7.23;;;5.90;;
18677;SDS011;9469;51.114;13.914;2022-12-07T15:27:18;3.93;;;2.33;;
18677;SDS011;9469;51.114;13.914;2022-12-07T15:32:23;6.23;;;2.63;;
18677;SDS011;9469;51.114;13.914;2022-12-07T15:37:28;12.33;;;4.57;;
18677;SDS011;9469;51.114;13.914;2022-12-07T15:42:36;5.53;;;3.73;;
18677;SDS011;9469;51.114;13.914;2022-12-07T15:47:42;6.23;;;4.10;;
18677;SDS011;9469;51.114;13.914;2022-12-07T15:53:10;9.67;;;4.60;;
18677;SDS011;9469;51.114;13.914;2022-12-07T15:58:19;16.10;;;6.57;;
18677;SDS011;9469;51.114;13.914;2022-12-07T16:03:24;5.67;;;4.47;;
18677;SDS011;9469;51.114;13.914;2022-12-07T16:08:33;4.40;;;4.00;;
18677;SDS011;9469;51.114;13.914;2022-12-07T16:13:40;5.60;;;4.90;;
18677;SDS011;9469;51.114;13.914;2022-12-07T16:18:46;4.83;;;4.33;;
18677;SDS011;9469;51.114;13.914;2022-12-07T16:23:57;5.20;;;4.53;;
18677;SDS011;9469;51.114;13.914;2022-12-07T16:29:05;5.70;;;4.93;;
18677;SDS011;9469;51.114;13.914;2022-12-07T16:34:10;6.03;;;4.43;;
18677;SDS011;9469;51.114;13.914;2022-12-07T16:39:15;9.13;;;5.03;;
18677;SDS011;9469;51.114;13.914;2022-12-07T16:44:27;10.77;;;5.40;;
18677;SDS011;9469;51.114;13.914;2022-12-07T16:49:35;8.33;;;6.10;;
18677;SDS011;9469;51.114;13.914;2022-12-07T16:54:40;7.30;;;5.67;;
18677;SDS011;9469;51.114;13.914;2022-12-07T16:59:49;10.63;;;5.57;;
18677;SDS011;9469;51.114;13.914;2022-12-07T17:04:56;6.00;;;4.50;;
18677;SDS011;9469;51.114;13.914;2022-12-07T17:10:02;8.07;;;5.57;;
18677;SDS011;9469;51.114;13.914;2022-12-07T17:15:12;7.97;;;4.87;;
18677;SDS011;9469;51.114;13.914;2022-12-07T17:20:23;7.33;;;4.40;;
18677;SDS011;9469;51.114;13.914;2022-12-07T17:25:32;5.20;;;3.60;;
18677;SDS011;9469;51.114;13.914;2022-12-07T17:30:40;8.73;;;5.30;;
18677;SDS011;9469;51.114;13.914;2022-12-07T17:35:45;5.17;;;3.43;;
18677;SDS011;9469;51.114;13.914;2022-12-07T17:40:50;7.40;;;4.30;;
18677;SDS011;9469;51.114;13.914;2022-12-07T17:46:04;5.53;;;3.57;;
18677;SDS011;9469;51.114;13.914;2022-12-07T17:51:10;6.13;;;4.93;;
18677;SDS011;9469;51.114;13.914;2022-12-07T17:56:28;5.53;;;3.60;;
18677;SDS011;9469;51.114;13.914;2022-12-07T18:01:37;6.73;;;3.80;;
18677;SDS011;9469;51.114;13.914;2022-12-07T18:06:47;4.37;;;2.83;;
18677;SDS011;9469;51.114;13.914;2022-12-07T18:11:53;7.13;;;3.67;;
18677;SDS011;9469;51.114;13.914;2022-12-07T18:17:02;7.20;;;3.60;;
18677;SDS011;9469;51.114;13.914;2022-12-07T18:22:07;5.33;;;3.00;;
18677;SDS011;9469;51.114;13.914;2022-12-07T18:27:12;5.20;;;3.63;;
18677;SDS011;9469;51.114;13.914;2022-12-07T18:32:20;3.43;;;3.10;;
18677;SDS011;9469;51.114;13.914;2022-12-07T18:37:26;3.70;;;2.90;;
18677;SDS011;9469;51.114;13.914;2022-12-07T18:42:32;5.27;;;3.17;;
18677;SDS011;9469;51.114;13.914;2022-12-07T18:47:40;2.50;;;2.30;;
18677;SDS011;9469;51.114;13.914;2022-12-07T18:52:45;5.50;;;2.90;;
18677;SDS011;9469;51.114;13.914;2022-12-07T18:57:50;5.80;;;2.30;;
18677;SDS011;9469;51.114;13.914;2022-12-07T19:02:58;5.33;;;3.10;;
18677;SDS011;9469;51.114;13.914;2022-12-07T19:08:04;3.30;;;3.00;;
18677;SDS011;9469;51.114;13.914;2022-12-07T19:13:09;5.07;;;4.03;;
18677;SDS011;9469;51.114;13.914;2022-12-07T19:18:17;5.27;;;2.60;;
18677;SDS011;9469;51.114;13.914;2022-12-07T19:23:22;6.70;;;2.83;;
18677;SDS011;9469;51.114;13.914;2022-12-07T19:28:27;7.77;;;3.70;;
18677;SDS011;9469;51.114;13.914;2022-12-07T19:33:38;4.60;;;3.03;;
18677;SDS011;9469;51.114;13.914;2022-12-07T19:38:43;3.43;;;3.00;;
18677;SDS011;9469;51.114;13.914;2022-12-07T19:43:50;4.60;;;3.23;;
18677;SDS011;9469;51.114;13.914;2022-12-07T19:48:58;6.87;;;3.10;;
18677;SDS011;9469;51.114;13.914;2022-12-07T19:54:06;7.40;;;3.63;;
18677;SDS011;9469;51.114;13.914;2022-12-07T19:59:12;6.87;;;3.60;;
18677;SDS011;9469;51.114;13.914;2022-12-07T20:04:22;6.30;;;3.83;;
18677;SDS011;9469;51.114;13.914;2022-12-07T20:09:28;5.53;;;4.40;;
18677;SDS011;9469;51.114;13.914;2022-12-07T20:14:39;5.33;;;3.67;;
18677;SDS011;9469;51.114;13.914;2022-12-07T20:19:47;6.20;;;4.40;;
18677;SDS011;9469;51.114;13.914;2022-12-07T20:24:52;7.50;;;4.13;;
18677;SDS011;9469;51.114;13.914;2022-12-07T20:29:58;7.93;;;4.97;;
18677;SDS011;9469;51.114;13.914;2022-12-07T20:35:07;9.90;;;5.17;;
18677;SDS011;9469;51.114;13.914;2022-12-07T20:40:14;10.57;;;6.27;;
18677;SDS011;9469;51.114;13.914;2022-12-07T20:45:21;7.23;;;4.97;;
18677;SDS011;9469;51.114;13.914;2022-12-07T20:50:28;6.47;;;5.10;;
18677;SDS011;9469;51.114;13.914;2022-12-07T20:55:42;6.40;;;5.00;;
18677;SDS011;9469;51.114;13.914;2022-12-07T21:00:48;7.23;;;4.80;;
18677;SDS011;9469;51.114;13.914;2022-12-07T21:05:56;7.33;;;5.13;;
18677;SDS011;9469;51.114;13.914;2022-12-07T21:11:05;10.27;;;5.33;;
18677;SDS011;9469;51.114;13.914;2022-12-07T21:16:12;9.60;;;5.00;;
18677;SDS011;9469;51.114;13.914;2022-12-07T21:21:22;7.40;;;4.67;;
18677;SDS011;9469;51.114;13.914;2022-12-07T21:26:27;6.37;;;4.53;;
18677;SDS011;9469;51.114;13.914;2022-12-07T21:31:34;8.80;;;4.63;;
18677;SDS011;9469;51.114;13.914;2022-12-07T21:36:42;6.93;;;4.90;;
18677;SDS011;9469;51.114;13.914;2022-12-07T21:41:47;14.33;;;4.80;;
18677;SDS011;9469;51.114;13.914;2022-12-07T21:46:52;9.37;;;4.50;;
18677;SDS011;9469;51.114;13.914;2022-12-07T21:52:00;10.33;;;5.67;;
18677;SDS011;9469;51.114;13.914;2022-12-07T21:57:06;9.50;;;5.20;;
18677;SDS011;9469;51.114;13.914;2022-12-07T22:02:12;7.67;;;5.43;;
18677;SDS011;9469;51.114;13.914;2022-12-07T22:07:20;9.17;;;5.60;;
18677;SDS011;9469;51.114;13.914;2022-12-07T22:12:26;11.27;;;6.07;;
18677;SDS011;9469;51.114;13.914;2022-12-07T22:17:31;8.43;;;5.27;;
18677;SDS011;9469;51.114;13.914;2022-12-07T22:22:38;11.80;;;4.80;;
18677;SDS011;9469;51.114;13.914;2022-12-07T22:27:43;12.80;;;4.73;;
18677;SDS011;9469;51.114;13.914;2022-12-07T22:32:49;12.23;;;5.43;;
18677;SDS011;9469;51.114;13.914;2022-12-07T22:37:56;11.10;;;5.33;;
18677;SDS011;9469;51.114;13.914;2022-12-07T22:43:01;7.83;;;6.00;;
18677;SDS011;9469;51.114;13.914;2022-12-07T22:48:07;6.53;;;4.77;;
18677;SDS011;9469;51.114;13.914;2022-12-07T22:53:15;10.57;;;4.90;;
18677;SDS011;9469;51.114;13.914;2022-12-07T22:58:21;11.20;;;4.83;;
18677;SDS011;9469;51.114;13.914;2022-12-07T23:03:26;5.83;;;5.23;;
18677;SDS011;9469;51.114;13.914;2022-12-07T23:08:34;8.77;;;4.73;;
18677;SDS011;9469;51.114;13.914;2022-12-07T23:13:40;11.23;;;5.50;;
18677;SDS011;9469;51.114;13.914;2022-12-07T23:18:44;7.90;;;5.13;;
18677;SDS011;9469;51.114;13.914;2022-12-07T23:23:52;9.33;;;5.30;;
18677;SDS011;9469;51.114;13.914;2022-12-07T23:28:57;8.20;;;4.97;;
18677;SDS011;9469;51.114;13.914;2022-12-07T23:34:02;7.73;;;4.90;;
18677;SDS011;9469;51.114;13.914;2022-12-07T23:39:10;7.47;;;4.83;;
18677;SDS011;9469;51.114;13.914;2022-12-07T23:44:16;8.00;;;4.93;;
18677;SDS011;9469;51.114;13.914;2022-12-07T23:49:21;9.03;;;4.77;;
18677;SDS011;9469;51.114;13.914;2022-12-07T23:54:38;9.37;;;4.70;;
18677;SDS011;9469;51.114;13.914;2022-12-07T23:59:43;7.10;;;4.40;;
